Time;durP1;ratioP1;P1;durP2;ratioP2;P2;SDS_P1;SDS_P2;PMS_P1;PMS_P2;Temp;Humidity;BMP_temperature;BMP_pressure;BME280_temperature;BME280_humidity;BME280_pressure;Samples;Min_cycle;Max_cycle;Signal;HPM_P1;HPM_P2
2023/07/17 00:00:30;;;;;;;12.65;11.15;;;19.70;99.90;;;;;;5031852;28;20049;-74
2023/07/17 00:02:56;;;;;;;10.63;9.52;;;19.70;99.90;;;;;;5032476;28;20025;-74
2023/07/17 00:05:22;;;;;;;10.25;8.95;;;19.70;99.90;;;;;;5033352;28;20056;-73
2023/07/17 00:07:48;;;;;;;11.40;8.63;;;19.60;99.90;;;;;;5032494;28;20382;-74
2023/07/17 00:10:14;;;;;;;11.73;8.25;;;19.60;99.90;;;;;;5015431;28;20048;-74
2023/07/17 00:12:40;;;;;;;8.55;7.68;;;19.70;99.90;;;;;;5032530;28;20021;-74
2023/07/17 00:15:07;;;;;;;11.65;7.38;;;19.70;99.90;;;;;;5031524;28;20033;-74
2023/07/17 00:17:34;;;;;;;9.63;7.95;;;19.70;99.90;;;;;;5032133;28;20470;-74
2023/07/17 00:20:00;;;;;;;9.57;7.47;;;19.70;99.90;;;;;;5032096;28;20033;-75
2023/07/17 00:22:26;;;;;;;8.27;7.50;;;19.70;99.90;;;;;;5031960;28;20470;-74
2023/07/17 00:24:52;;;;;;;11.07;7.78;;;19.70;99.90;;;;;;5033395;28;20026;-74
2023/07/17 00:27:19;;;;;;;8.90;7.10;;;19.70;99.90;;;;;;5031980;28;20040;-74
2023/07/17 00:29:45;;;;;;;9.65;7.18;;;19.60;99.90;;;;;;5031883;28;20040;-75
2023/07/17 00:32:12;;;;;;;8.02;6.72;;;19.60;99.90;;;;;;5032273;28;20410;-75
2023/07/17 00:34:39;;;;;;;9.27;7.70;;;19.60;99.90;;;;;;5031772;28;20033;-74
2023/07/17 00:37:05;;;;;;;9.23;6.53;;;19.50;99.90;;;;;;5032699;28;20040;-74
2023/07/17 00:39:31;;;;;;;9.25;7.03;;;19.60;99.90;;;;;;5015582;28;20402;-74
2023/07/17 00:41:57;;;;;;;8.98;6.82;;;19.50;99.90;;;;;;5031538;28;20029;-74
2023/07/17 00:44:23;;;;;;;8.60;7.07;;;19.50;99.90;;;;;;5031475;28;20390;-74
2023/07/17 00:46:50;;;;;;;9.95;6.88;;;19.40;99.90;;;;;;5031106;28;20060;-74
2023/07/17 00:49:16;;;;;;;10.98;7.22;;;19.40;99.90;;;;;;5031569;28;20056;-75
2023/07/17 00:51:42;;;;;;;8.75;7.70;;;19.40;99.90;;;;;;5031390;28;20067;-74
2023/07/17 00:54:08;;;;;;;12.82;9.05;;;19.40;99.90;;;;;;5031611;28;20041;-74
2023/07/17 00:56:34;;;;;;;11.20;9.15;;;19.40;99.90;;;;;;5031319;28;20029;-74
2023/07/17 00:59:00;;;;;;;10.73;9.23;;;19.40;99.90;;;;;;5031163;28;20065;-74
2023/07/17 01:01:27;;;;;;;10.68;9.70;;;19.20;99.90;;;;;;5032188;28;20037;-74
2023/07/17 01:03:56;;;;;;;9.32;7.88;;;19.30;99.90;;;;;;5031369;28;20022;-74
2023/07/17 01:06:23;;;;;;;9.57;8.50;;;19.20;99.90;;;;;;5031207;28;20033;-74
2023/07/17 01:08:49;;;;;;;9.82;7.70;;;19.30;99.90;;;;;;5030596;28;20394;-74
2023/07/17 01:11:15;;;;;;;8.60;7.63;;;19.20;99.90;;;;;;5032178;28;20040;-74
2023/07/17 01:13:48;;;;;;;8.70;7.70;;;19.20;99.90;;;;;;5031001;28;20377;-74
2023/07/17 01:16:14;;;;;;;11.20;7.70;;;19.20;99.90;;;;;;5031721;28;20049;-74
2023/07/17 01:18:40;;;;;;;10.85;8.40;;;19.20;99.90;;;;;;5031279;28;20462;-74
2023/07/17 01:21:08;;;;;;;11.30;8.23;;;19.00;99.90;;;;;;5031016;28;20044;-74
2023/07/17 01:23:35;;;;;;;9.30;8.38;;;19.10;99.90;;;;;;5031087;28;20392;-74
2023/07/17 01:26:15;;;;;;;8.82;7.97;;;19.00;99.90;;;;;;5032135;28;20374;-74
2023/07/17 01:28:41;;;;;;;12.52;8.02;;;18.90;99.90;;;;;;5030865;28;20033;-75
2023/07/17 01:31:08;;;;;;;9.15;8.30;;;18.90;99.90;;;;;;5031622;28;20037;-74
2023/07/17 01:33:34;;;;;;;9.35;8.23;;;18.90;99.90;;;;;;5032214;28;20438;-74
2023/07/17 01:36:01;;;;;;;9.45;7.85;;;19.00;99.90;;;;;;5030721;28;20056;-75
2023/07/17 01:38:27;;;;;;;11.30;6.97;;;18.90;99.90;;;;;;5031059;28;20462;-74
2023/07/17 01:40:53;;;;;;;12.52;8.70;;;18.90;99.90;;;;;;5030460;28;20052;-74
2023/07/17 01:43:19;;;;;;;9.00;7.95;;;18.90;99.90;;;;;;5031931;28;20025;-74
2023/07/17 01:45:45;;;;;;;9.07;8.27;;;18.80;99.90;;;;;;5033736;28;20033;-74
2023/07/17 01:48:13;;;;;;;12.57;10.75;;;18.80;99.90;;;;;;5035996;28;20020;-75
2023/07/17 01:50:39;;;;;;;11.32;10.18;;;18.80;99.90;;;;;;5034822;28;20060;-74
2023/07/17 01:53:05;;;;;;;10.80;9.75;;;18.80;99.90;;;;;;5036038;28;20025;-74
2023/07/17 01:55:31;;;;;;;12.93;10.73;;;18.80;99.90;;;;;;5034580;28;20364;-74
2023/07/17 01:57:58;;;;;;;15.18;11.75;;;18.80;99.90;;;;;;5034201;28;20026;-74
2023/07/17 02:00:24;;;;;;;12.13;11.02;;;18.80;99.90;;;;;;5032294;28;20033;-75
2023/07/17 02:02:50;;;;;;;14.10;11.77;;;18.80;99.90;;;;;;5026070;28;20402;-74
2023/07/17 02:05:17;;;;;;;11.52;9.00;;;18.70;99.90;;;;;;5031830;28;20037;-75
2023/07/17 02:07:43;;;;;;;12.25;11.05;;;18.80;99.90;;;;;;5034567;28;20030;-74
2023/07/17 02:10:09;;;;;;;12.55;9.82;;;18.70;99.90;;;;;;5034310;28;20026;-75
2023/07/17 02:12:36;;;;;;;12.80;11.45;;;18.70;99.90;;;;;;5034336;28;20044;-74
2023/07/17 02:15:02;;;;;;;13.20;11.68;;;18.60;99.90;;;;;;5034328;28;20042;-74
2023/07/17 02:17:28;;;;;;;12.55;11.25;;;18.60;99.90;;;;;;5032129;28;20056;-74
2023/07/17 02:19:54;;;;;;;12.82;10.75;;;18.70;99.90;;;;;;5034594;28;20030;-75
2023/07/17 02:22:20;;;;;;;12.10;11.05;;;18.60;99.90;;;;;;5013049;28;20049;-74
2023/07/17 02:24:47;;;;;;;12.45;9.02;;;18.60;99.90;;;;;;5014478;28;20038;-74
2023/07/17 02:27:13;;;;;;;12.90;11.60;;;18.50;99.90;;;;;;5030891;28;20049;-74
2023/07/17 02:29:39;;;;;;;10.52;9.52;;;18.50;99.90;;;;;;5034237;28;20044;-74
2023/07/17 02:32:06;;;;;;;13.50;12.25;;;18.40;99.90;;;;;;5033277;28;20040;-74
2023/07/17 02:34:32;;;;;;;12.90;9.05;;;18.50;99.90;;;;;;5034174;28;20037;-75
2023/07/17 02:36:58;;;;;;;10.85;9.38;;;18.50;99.90;;;;;;5033137;28;20030;-74
2023/07/17 02:39:24;;;;;;;10.75;9.70;;;18.50;99.90;;;;;;5035116;28;20030;-74
2023/07/17 02:41:50;;;;;;;13.70;9.18;;;18.50;99.90;;;;;;5033538;28;20025;-75
2023/07/17 02:44:16;;;;;;;11.13;10.00;;;18.40;99.90;;;;;;5033851;28;20394;-74
2023/07/17 02:46:42;;;;;;;13.82;9.18;;;18.40;99.90;;;;;;5034814;28;20494;-74
2023/07/17 02:49:11;;;;;;;10.13;8.20;;;18.40;99.90;;;;;;5035010;28;20069;-75
2023/07/17 02:51:37;;;;;;;9.20;8.30;;;18.40;99.90;;;;;;5033620;28;20398;-75
2023/07/17 02:54:04;;;;;;;9.88;8.98;;;18.40;99.90;;;;;;5034052;28;20021;-74
2023/07/17 02:56:30;;;;;;;10.88;8.93;;;18.40;99.90;;;;;;5032754;28;20041;-74
2023/07/17 02:58:56;;;;;;;11.98;9.20;;;18.40;99.90;;;;;;5034914;28;20030;-74
2023/07/17 03:01:22;;;;;;;11.57;9.13;;;18.40;99.90;;;;;;5034174;28;20037;-74
2023/07/17 03:03:48;;;;;;;10.80;8.70;;;18.30;99.90;;;;;;5034851;28;20029;-75
2023/07/17 03:06:14;;;;;;;11.57;8.50;;;18.30;99.90;;;;;;5033759;28;20053;-74
2023/07/17 03:08:40;;;;;;;11.43;8.93;;;18.20;99.90;;;;;;5034682;28;20021;-75
2023/07/17 03:11:06;;;;;;;11.52;8.40;;;18.20;99.90;;;;;;5033071;28;20033;-74
2023/07/17 03:13:32;;;;;;;10.32;9.27;;;18.20;99.90;;;;;;5033418;28;20028;-74
2023/07/17 03:15:58;;;;;;;13.35;9.73;;;18.20;99.90;;;;;;5033999;28;20045;-74
2023/07/17 03:18:25;;;;;;;10.65;9.65;;;18.20;99.90;;;;;;5033421;28;20025;-74
2023/07/17 03:20:52;;;;;;;10.60;9.07;;;18.20;99.90;;;;;;5034627;28;20056;-74
2023/07/17 03:23:18;;;;;;;13.45;8.65;;;18.20;99.90;;;;;;5033220;28;20031;-74
2023/07/17 03:25:44;;;;;;;10.38;8.25;;;18.20;99.90;;;;;;5034105;28;20048;-75
2023/07/17 03:28:10;;;;;;;11.80;8.73;;;18.20;99.90;;;;;;5033196;28;20033;-74
2023/07/17 03:30:36;;;;;;;11.40;9.95;;;18.20;99.90;;;;;;5033948;28;20036;-75
2023/07/17 03:33:03;;;;;;;12.60;9.38;;;18.10;99.90;;;;;;5033238;28;20390;-74
2023/07/17 03:35:29;;;;;;;10.05;8.90;;;18.10;99.90;;;;;;5033924;28;20045;-74
2023/07/17 03:37:55;;;;;;;12.38;11.10;;;18.00;99.90;;;;;;5033774;28;20026;-74
2023/07/17 03:40:21;;;;;;;10.70;8.73;;;18.00;99.90;;;;;;5034045;28;20045;-74
2023/07/17 03:42:47;;;;;;;14.35;9.52;;;18.00;99.90;;;;;;5034263;28;20497;-74
2023/07/17 03:45:13;;;;;;;11.75;7.95;;;17.90;99.90;;;;;;5033271;28;20048;-74
2023/07/17 03:47:39;;;;;;;9.38;8.55;;;17.90;99.90;;;;;;5034114;28;20018;-74
2023/07/17 03:50:05;;;;;;;9.73;7.63;;;17.90;99.90;;;;;;5034144;28;20057;-74
2023/07/17 03:52:31;;;;;;;12.73;8.70;;;17.90;99.90;;;;;;5033339;28;20049;-74
2023/07/17 03:54:58;;;;;;;11.32;8.38;;;17.90;99.90;;;;;;5033915;28;20363;-74
2023/07/17 03:57:24;;;;;;;11.93;7.75;;;17.80;99.90;;;;;;5032433;28;20033;-74
2023/07/17 03:59:51;;;;;;;9.23;7.18;;;17.80;99.90;;;;;;5033949;28;20021;-74
2023/07/17 04:02:18;;;;;;;12.20;7.68;;;17.70;99.90;;;;;;5033130;28;20394;-74
2023/07/17 04:04:44;;;;;;;8.63;6.85;;;17.70;99.90;;;;;;5032520;28;20037;-74
2023/07/17 04:07:10;;;;;;;8.18;6.45;;;17.70;99.90;;;;;;5032749;28;20352;-75
2023/07/17 04:09:36;;;;;;;10.60;6.07;;;17.70;99.90;;;;;;5033554;28;20041;-75
2023/07/17 04:12:03;;;;;;;8.52;6.00;;;17.70;99.90;;;;;;5032022;28;20056;-75
2023/07/17 04:14:33;;;;;;;12.15;6.13;;;17.70;99.90;;;;;;5032336;28;20033;-74
2023/07/17 04:16:59;;;;;;;11.20;6.22;;;17.80;99.90;;;;;;5031632;28;20041;-74
2023/07/17 04:19:26;;;;;;;10.35;6.22;;;17.70;99.90;;;;;;5032109;28;20030;-74
2023/07/17 04:21:53;;;;;;;11.18;7.00;;;17.70;99.90;;;;;;5031731;28;20037;-74
2023/07/17 04:24:19;;;;;;;9.52;5.78;;;17.70;99.90;;;;;;5033520;28;20032;-74
2023/07/17 04:26:45;;;;;;;7.20;5.90;;;17.60;99.90;;;;;;5031854;28;20044;-75
2023/07/17 04:29:11;;;;;;;8.40;6.07;;;17.60;99.90;;;;;;5032139;28;20387;-74
2023/07/17 04:31:37;;;;;;;9.68;6.30;;;17.60;99.90;;;;;;5032599;28;20041;-75
2023/07/17 04:34:03;;;;;;;9.38;7.32;;;17.60;99.90;;;;;;5033137;28;20025;-74
2023/07/17 04:36:29;;;;;;;7.43;5.72;;;17.60;99.90;;;;;;5032466;28;20048;-74
2023/07/17 04:38:55;;;;;;;9.05;5.47;;;17.50;99.90;;;;;;5031843;28;20037;-74
2023/07/17 04:41:21;;;;;;;10.95;6.20;;;17.50;99.90;;;;;;5014838;28;20038;-74
2023/07/17 04:43:48;;;;;;;11.43;7.68;;;17.50;99.90;;;;;;5032900;28;20022;-74
2023/07/17 04:46:14;;;;;;;16.65;8.27;;;17.50;99.90;;;;;;5032255;28;20038;-74
2023/07/17 04:48:40;;;;;;;12.98;7.13;;;17.50;99.90;;;;;;5032930;28;20478;-75
2023/07/17 04:51:06;;;;;;;11.82;6.32;;;17.50;99.90;;;;;;5032239;28;20060;-74
2023/07/17 04:53:34;;;;;;;9.77;7.15;;;17.40;99.90;;;;;;5015310;28;20057;-74
2023/07/17 04:56:00;;;;;;;9.60;6.85;;;17.50;99.90;;;;;;5032546;28;20038;-74
2023/07/17 04:58:26;;;;;;;9.95;6.72;;;17.50;99.90;;;;;;5031554;28;20056;-74
2023/07/17 05:01:01;;;;;;;10.40;6.68;;;17.50;99.90;;;;;;5031929;28;20034;-74
2023/07/17 05:03:30;;;;;;;10.60;7.68;;;17.50;99.90;;;;;;5031392;28;20036;-74
2023/07/17 05:05:56;;;;;;;12.63;6.63;;;17.50;99.90;;;;;;5032208;28;20040;-74
2023/07/17 05:08:22;;;;;;;9.77;6.32;;;17.60;99.90;;;;;;5032578;28;20030;-74
2023/07/17 05:10:59;;;;;;;10.43;6.80;;;17.60;99.90;;;;;;5031215;28;20038;-74
2023/07/17 05:13:25;;;;;;;10.43;6.40;;;17.60;99.90;;;;;;5031597;28;20034;-74
2023/07/17 05:15:52;;;;;;;14.25;6.68;;;17.70;99.90;;;;;;5030651;28;20411;-74
2023/07/17 05:18:18;;;;;;;11.70;7.40;;;17.80;99.90;;;;;;5014759;28;20494;-74
2023/07/17 05:20:48;;;;;;;12.00;8.90;;;17.90;99.90;;;;;;5031852;28;20029;-73
2023/07/17 05:23:14;;;;;;;12.27;10.82;;;18.00;99.90;;;;;;5031340;28;20029;-74
2023/07/17 05:25:41;;;;;;;13.18;9.25;;;18.20;99.90;;;;;;5032090;28;20026;-74
2023/07/17 05:28:08;;;;;;;13.65;12.45;;;18.30;99.90;;;;;;5031182;28;20033;-74
2023/07/17 05:30:34;;;;;;;15.93;14.40;;;18.50;99.90;;;;;;5030227;28;20034;-74
2023/07/17 05:33:01;;;;;;;13.80;12.40;;;18.60;99.90;;;;;;5031281;28;20041;-74
2023/07/17 05:35:27;;;;;;;13.60;11.77;;;18.90;99.90;;;;;;5031547;28;20128;-73
2023/07/17 05:37:54;;;;;;;14.13;12.70;;;19.00;99.90;;;;;;5030924;28;20136;-74
2023/07/17 05:40:20;;;;;;;15.55;14.18;;;19.10;99.90;;;;;;5030737;28;20037;-74
2023/07/17 05:42:46;;;;;;;12.52;11.43;;;19.30;99.90;;;;;;5032220;28;20078;-74
2023/07/17 05:45:12;;;;;;;12.55;10.35;;;19.50;99.90;;;;;;5031399;28;20045;-74
2023/07/17 05:47:38;;;;;;;10.98;9.88;;;19.60;99.90;;;;;;5032164;28;20026;-74
2023/07/17 05:50:05;;;;;;;16.65;14.55;;;19.80;99.90;;;;;;5031600;28;20509;-73
2023/07/17 05:52:31;;;;;;;14.30;12.80;;;20.00;99.90;;;;;;5030798;28;20038;-77
2023/07/17 05:54:57;;;;;;;14.60;13.30;;;20.20;99.90;;;;;;5032126;28;20029;-76
2023/07/17 05:57:23;;;;;;;17.45;15.93;;;20.30;99.90;;;;;;5031671;28;20049;-76
2023/07/17 05:59:50;;;;;;;17.60;16.15;;;20.40;99.90;;;;;;5030847;28;20378;-76
2023/07/17 06:02:16;;;;;;;18.38;16.88;;;20.60;99.90;;;;;;5031368;28;20037;-76
2023/07/17 06:04:42;;;;;;;20.65;17.90;;;20.70;99.90;;;;;;5031671;28;20387;-74
2023/07/17 06:07:09;;;;;;;24.30;22.60;;;20.80;99.90;;;;;;5031768;28;20033;-74
2023/07/17 06:09:35;;;;;;;21.95;20.23;;;21.00;99.90;;;;;;5031871;28;20017;-74
2023/07/17 06:12:02;;;;;;;23.88;21.98;;;21.10;99.90;;;;;;5030606;28;20041;-74
2023/07/17 06:14:28;;;;;;;21.27;19.67;;;21.20;99.90;;;;;;5031015;28;20351;-74
2023/07/17 06:16:54;;;;;;;22.35;20.63;;;21.30;99.90;;;;;;5029710;28;20053;-74
2023/07/17 06:19:20;;;;;;;20.80;19.30;;;21.40;99.90;;;;;;5031616;28;20029;-74
2023/07/17 06:21:46;;;;;;;22.52;20.77;;;21.40;99.90;;;;;;5031420;28;20034;-74
2023/07/17 06:24:12;;;;;;;25.88;23.52;;;21.50;99.90;;;;;;5031692;28;20025;-74
2023/07/17 06:26:38;;;;;;;24.17;22.45;;;21.60;99.90;;;;;;5031530;28;20056;-74
2023/07/17 06:29:09;;;;;;;24.27;22.58;;;21.70;99.90;;;;;;5031614;28;20018;-74
2023/07/17 06:31:35;;;;;;;28.10;26.10;;;21.90;99.90;;;;;;5031765;28;20037;-74
2023/07/17 06:34:01;;;;;;;31.33;29.15;;;22.00;99.90;;;;;;5034068;28;20022;-74
2023/07/17 06:36:27;;;;;;;29.65;27.45;;;22.10;99.90;;;;;;5017149;28;20052;-77
2023/07/17 06:38:53;;;;;;;35.50;33.22;;;22.20;99.90;;;;;;5035261;28;20065;-76
2023/07/17 06:41:19;;;;;;;40.05;37.30;;;22.30;99.90;;;;;;5033821;28;20124;-77
2023/07/17 06:43:46;;;;;;;41.80;39.15;;;22.50;99.90;;;;;;5035238;28;20459;-77
2023/07/17 06:46:12;;;;;;;44.78;41.88;;;22.50;99.90;;;;;;5034277;28;20041;-77
2023/07/17 06:48:38;;;;;;;40.33;37.92;;;22.60;99.90;;;;;;5035290;28;20024;-77
2023/07/17 06:51:04;;;;;;;55.60;52.50;;;22.70;99.90;;;;;;5034782;28;20049;-77
2023/07/17 06:53:33;;;;;;;57.90;54.33;;;22.80;99.90;;;;;;5035123;28;20033;-77
2023/07/17 06:56:00;;;;;;;65.97;62.20;;;22.90;99.90;;;;;;5034787;28;20030;-76
2023/07/17 06:58:26;;;;;;;63.08;59.47;;;23.10;99.90;;;;;;5035057;28;20394;-77
2023/07/17 07:00:59;;;;;;;50.38;47.35;;;23.20;99.90;;;;;;5033879;28;20040;-77
2023/07/17 07:03:26;;;;;;;59.90;56.50;;;23.30;99.90;;;;;;5033550;28;20017;-76
2023/07/17 07:06:00;;;;;;;61.90;58.00;;;23.40;99.90;;;;;;5033494;28;20042;-77
2023/07/17 07:08:30;;;;;;;59.85;56.42;;;23.50;99.90;;;;;;5034807;28;20037;-76
2023/07/17 07:10:57;;;;;;;60.37;56.73;;;23.60;99.90;;;;;;5033043;28;20045;-76
2023/07/17 07:13:23;;;;;;;58.63;55.20;;;23.70;99.90;;;;;;5033599;28;20025;-76
2023/07/17 07:15:53;;;;;;;55.78;52.65;;;23.80;99.90;;;;;;5032608;28;20038;-77
2023/07/17 07:18:19;;;;;;;52.38;49.15;;;23.90;99.90;;;;;;5033511;28;20042;-76
2023/07/17 07:20:46;;;;;;;51.80;48.42;;;24.10;99.90;;;;;;5033104;28;20355;-76
2023/07/17 07:23:12;;;;;;;53.08;49.90;;;24.10;99.90;;;;;;5033361;28;20046;-77
2023/07/17 07:25:38;;;;;;;55.20;52.03;;;24.30;99.90;;;;;;5033192;28;20371;-74
2023/07/17 07:28:04;;;;;;;53.65;50.65;;;24.40;99.90;;;;;;5034345;28;20041;-74
2023/07/17 07:30:30;;;;;;;48.70;45.55;;;24.50;99.90;;;;;;5032171;28;20037;-74
2023/07/17 07:32:57;;;;;;;41.60;38.78;;;24.50;99.90;;;;;;5033148;28;20490;-73
2023/07/17 07:35:23;;;;;;;49.05;45.95;;;24.60;99.90;;;;;;5034240;28;20034;-74
2023/07/17 07:37:49;;;;;;;38.45;36.22;;;24.70;99.90;;;;;;5034272;28;20478;-74
2023/07/17 07:40:15;;;;;;;35.35;33.15;;;24.80;99.90;;;;;;5032798;28;20032;-74
2023/07/17 07:42:42;;;;;;;39.53;37.13;;;24.90;99.90;;;;;;5031872;28;20029;-74
2023/07/17 07:45:09;;;;;;;32.17;30.10;;;24.70;99.90;;;;;;5033329;28;20463;-73
2023/07/17 07:47:35;;;;;;;34.25;32.03;;;24.90;99.90;;;;;;5032002;28;20042;-74
2023/07/17 07:50:01;;;;;;;30.67;28.77;;;25.00;99.90;;;;;;5034060;28;20056;-74
2023/07/17 07:52:27;;;;;;;23.65;22.05;;;25.10;99.90;;;;;;5033796;28;20029;-74
2023/07/17 07:54:53;;;;;;;27.33;25.60;;;25.30;99.90;;;;;;5034065;28;20036;-74
2023/07/17 07:57:20;;;;;;;21.23;19.75;;;25.40;99.90;;;;;;5033529;28;20042;-74
2023/07/17 07:59:46;;;;;;;25.17;23.58;;;25.50;99.90;;;;;;5033579;28;20391;-74
2023/07/17 08:02:13;;;;;;;25.67;23.98;;;25.50;99.90;;;;;;5031766;28;20041;-74
2023/07/17 08:04:39;;;;;;;23.83;22.00;;;25.40;99.60;;;;;;5032708;28;20022;-75
2023/07/17 08:07:05;;;;;;;22.70;21.30;;;25.10;99.00;;;;;;5033358;28;20041;-74
2023/07/17 08:09:31;;;;;;;25.98;24.08;;;24.90;98.70;;;;;;5033724;28;20029;-77
2023/07/17 08:11:57;;;;;;;28.98;26.88;;;24.60;98.80;;;;;;5032243;28;20041;-77
2023/07/17 08:14:23;;;;;;;28.52;26.42;;;24.30;99.30;;;;;;5032222;28;20073;-76
2023/07/17 08:16:49;;;;;;;27.35;25.60;;;24.30;99.90;;;;;;5030804;28;20065;-76
2023/07/17 08:19:19;;;;;;;27.48;25.65;;;24.50;99.90;;;;;;5033458;28;20032;-77
2023/07/17 08:21:45;;;;;;;20.83;19.52;;;24.70;99.90;;;;;;5032105;28;20040;-77
2023/07/17 08:24:11;;;;;;;19.70;18.17;;;25.00;99.80;;;;;;5032312;28;20036;-74
2023/07/17 08:26:40;;;;;;;23.50;21.92;;;25.30;99.50;;;;;;5032065;28;20056;-74
2023/07/17 08:29:07;;;;;;;24.33;22.65;;;25.40;98.10;;;;;;5031895;28;20466;-74
2023/07/17 08:31:33;;;;;;;26.52;24.70;;;25.20;97.60;;;;;;5031399;28;20402;-74
2023/07/17 08:34:00;;;;;;;26.88;25.27;;;25.10;98.00;;;;;;5033361;28;20021;-74
2023/07/17 08:36:28;;;;;;;25.85;24.33;;;25.00;98.00;;;;;;5031566;28;20042;-74
2023/07/17 08:38:54;;;;;;;27.65;25.65;;;25.00;97.50;;;;;;5032965;28;20028;-74
2023/07/17 08:41:21;;;;;;;27.58;25.77;;;25.10;97.90;;;;;;5031675;28;20052;-74
2023/07/17 08:43:51;;;;;;;26.05;24.17;;;25.10;97.00;;;;;;5031646;28;20018;-74
2023/07/17 08:46:17;;;;;;;21.45;20.05;;;25.10;97.00;;;;;;5030967;28;20495;-74
2023/07/17 08:48:47;;;;;;;22.17;20.45;;;25.20;97.10;;;;;;5031865;28;20026;-74
2023/07/17 08:51:14;;;;;;;;;;;25.30;96.50;;;;;;5031930;28;20053;-74
2023/07/17 08:53:42;;;;;;;23.73;22.33;;;25.30;96.30;;;;;;5031487;28;19912;-74
2023/07/17 08:56:08;;;;;;;22.02;20.73;;;25.40;95.30;;;;;;5031427;28;20364;-74
2023/07/17 08:58:34;;;;;;;20.55;19.35;;;25.40;95.60;;;;;;5031268;28;20037;-74
2023/07/17 09:01:00;;;;;;;21.30;19.90;;;25.40;95.20;;;;;;5030813;28;20490;-74
2023/07/17 09:03:26;;;;;;;20.52;19.13;;;25.40;95.20;;;;;;5031414;28;20032;-73
2023/07/17 09:05:52;;;;;;;20.08;18.77;;;25.40;95.30;;;;;;5031219;28;20060;-74
2023/07/17 09:08:18;;;;;;;18.70;17.45;;;25.50;95.10;;;;;;5031328;28;20036;-74
2023/07/17 09:10:44;;;;;;;21.52;20.10;;;25.60;94.20;;;;;;5030864;28;20040;-73
2023/07/17 09:13:11;;;;;;;21.77;20.17;;;25.80;94.20;;;;;;5032244;28;20471;-74
2023/07/17 09:15:38;;;;;;;20.10;18.90;;;25.90;93.90;;;;;;5030687;28;20042;-74
2023/07/17 09:18:04;;;;;;;21.23;19.98;;;25.90;93.50;;;;;;5032164;28;20034;-73
2023/07/17 09:20:30;;;;;;;22.70;21.25;;;25.90;93.50;;;;;;5032227;28;20040;-74
2023/07/17 09:22:59;;;;;;;24.88;23.38;;;26.10;93.40;;;;;;5032284;28;20026;-74
2023/07/17 09:25:26;;;;;;;30.77;28.88;;;26.20;92.80;;;;;;5030854;28;20033;-74
2023/07/17 09:27:52;;;;;;;26.95;25.27;;;26.40;92.50;;;;;;5032182;28;20030;-74
2023/07/17 09:30:22;;;;;;;29.75;27.92;;;26.50;92.10;;;;;;5030392;28;20036;-74
2023/07/17 09:32:49;;;;;;;27.25;25.42;;;26.50;92.20;;;;;;5031257;28;20025;-74
2023/07/17 09:35:19;;;;;;;25.60;24.13;;;26.60;92.70;;;;;;5032428;28;20030;-74
2023/07/17 09:37:45;;;;;;;31.35;29.58;;;26.80;92.50;;;;;;5031865;28;20037;-74
2023/07/17 09:40:12;;;;;;;34.65;32.80;;;26.80;91.70;;;;;;5030757;28;20467;-74
2023/07/17 09:42:41;;;;;;;29.77;28.10;;;26.80;91.60;;;;;;5031195;28;20029;-74
2023/07/17 09:45:08;;;;;;;32.17;30.30;;;26.90;92.40;;;;;;5030643;28;20032;-75
2023/07/17 09:47:34;;;;;;;31.48;29.63;;;27.10;92.30;;;;;;5030663;28;20455;-74
2023/07/17 09:50:02;;;;;;;37.22;35.22;;;27.30;91.80;;;;;;5030773;28;20494;-75
2023/07/17 09:52:32;;;;;;;51.55;48.67;;;27.20;91.40;;;;;;5030757;28;20040;-74
2023/07/17 09:55:00;;;;;;;26.90;25.40;;;26.90;90.00;;;;;;5030669;28;20026;-74
2023/07/17 09:57:37;;;;;;;27.45;25.95;;;26.70;91.20;;;;;;5030514;28;20040;-74
2023/07/17 10:00:10;;;;;;;24.90;23.40;;;26.50;91.30;;;;;;5014499;28;20038;-74
2023/07/17 10:02:39;;;;;;;23.00;21.40;;;26.10;91.20;;;;;;5030872;28;20458;-74
2023/07/17 10:05:05;;;;;;;25.85;24.10;;;26.00;92.00;;;;;;5030686;28;20025;-75
2023/07/17 10:07:36;;;;;;;26.23;24.52;;;26.20;91.90;;;;;;5034204;28;20041;-74
2023/07/17 10:10:03;;;;;;;27.77;26.17;;;26.30;91.50;;;;;;5034618;28;20034;-74
2023/07/17 10:12:29;;;;;;;31.52;29.63;;;26.50;91.60;;;;;;5034536;28;20033;-74
2023/07/17 10:14:56;;;;;;;40.10;37.95;;;26.80;91.40;;;;;;5034454;28;20036;-74
2023/07/17 10:17:23;;;;;;;52.92;50.00;;;27.10;91.30;;;;;;5033783;28;20057;-74
2023/07/17 10:19:49;;;;;;;49.72;47.33;;;27.20;90.00;;;;;;5035741;28;20037;-74
2023/07/17 10:22:15;;;;;;;52.92;50.17;;;27.10;89.90;;;;;;5034147;28;20034;-74
2023/07/17 10:24:41;;;;;;;56.45;53.55;;;27.20;90.20;;;;;;5034079;28;20032;-74
2023/07/17 10:27:07;;;;;;;45.42;43.05;;;27.20;89.40;;;;;;5033932;28;20033;-74
2023/07/17 10:29:43;;;;;;;26.10;24.58;;;27.10;89.10;;;;;;5034588;28;20044;-74
2023/07/17 10:32:13;;;;;;;28.33;26.38;;;26.80;91.00;;;;;;5033602;28;20041;-74
2023/07/17 10:34:50;;;;;;;29.67;27.90;;;26.70;90.50;;;;;;5034239;28;20379;-74
2023/07/17 10:37:31;;;;;;;27.05;25.45;;;26.60;90.40;;;;;;5033760;28;20049;-74
2023/07/17 10:40:08;;;;;;;36.40;34.22;;;26.60;91.10;;;;;;5035001;28;20049;-74
2023/07/17 10:42:34;;;;;;;49.97;47.28;;;26.70;90.30;;;;;;5033914;28;20033;-74
2023/07/17 10:45:10;;;;;;;34.72;32.72;;;26.70;88.20;;;;;;5034039;28;20044;-74
2023/07/17 10:47:36;;;;;;;53.10;50.30;;;26.80;90.20;;;;;;5033165;28;20061;-74
2023/07/17 10:50:05;;;;;;;37.28;35.28;;;27.10;89.10;;;;;;5033930;28;20406;-74
2023/07/17 10:52:33;;;;;;;53.92;51.05;;;27.20;90.20;;;;;;5035065;28;20041;-74
2023/07/17 10:55:04;;;;;;;60.95;57.38;;;27.50;90.00;;;;;;5033744;28;20036;-74
2023/07/17 10:57:30;;;;;;;;;;;27.70;89.20;;;;;;5033885;28;20037;-74
2023/07/17 10:59:56;;;;;;;58.53;55.28;;;27.70;86.50;;;;;;5033879;28;19905;-74
2023/07/17 11:02:25;;;;;;;49.20;46.40;;;27.60;88.50;;;;;;5032918;28;20030;-74
2023/07/17 11:04:55;;;;;;;53.38;50.47;;;27.60;88.20;;;;;;5033560;28;20049;-73
2023/07/17 11:07:21;;;;;;;41.30;39.13;;;27.40;88.40;;;;;;5033105;28;20025;-74
2023/07/17 11:09:47;;;;;;;68.28;64.70;;;27.40;89.20;;;;;;5033678;28;20268;-74
2023/07/17 11:12:14;;;;;;;67.97;64.38;;;27.50;86.40;;;;;;5033299;28;20035;-74
2023/07/17 11:14:41;;;;;;;56.83;53.53;;;27.10;85.10;;;;;;5034898;28;20029;-74
2023/07/17 11:17:10;;;;;;;41.92;39.58;;;26.90;86.10;;;;;;5032441;28;20056;-74
2023/07/17 11:19:36;;;;;;;38.03;35.88;;;26.90;87.90;;;;;;5034703;28;20022;-74
2023/07/17 11:22:02;;;;;;;39.17;36.95;;;27.00;88.10;;;;;;5034016;28;20517;-74
2023/07/17 11:24:28;;;;;;;41.47;39.33;;;27.10;87.60;;;;;;5034634;28;20394;-75
2023/07/17 11:26:54;;;;;;;36.80;34.70;;;27.00;87.50;;;;;;5033028;28;20033;-74
2023/07/17 11:29:20;;;;;;;33.95;31.88;;;27.10;88.50;;;;;;5033452;28;20036;-75
2023/07/17 11:31:47;;;;;;;56.15;53.10;;;27.20;89.00;;;;;;5016116;28;20038;-74
2023/07/17 11:34:13;;;;;;;35.13;33.10;;;27.20;85.70;;;;;;5033165;28;20030;-74
2023/07/17 11:36:39;;;;;;;51.20;48.55;;;27.10;89.10;;;;;;5033606;28;20382;-74
2023/07/17 11:39:11;;;;;;;44.08;41.78;;;27.30;86.90;;;;;;5033244;28;20463;-75
2023/07/17 11:41:45;;;;;;;52.42;49.72;;;27.40;88.10;;;;;;5033909;28;20409;-75
2023/07/17 11:44:11;;;;;;;53.50;50.80;;;27.40;86.10;;;;;;5033293;28;20030;-74
2023/07/17 11:46:39;;;;;;;36.75;34.65;;;27.00;85.50;;;;;;5032271;28;20411;-75
2023/07/17 11:49:06;;;;;;;38.03;35.72;;;26.70;86.90;;;;;;5033810;28;20029;-75
2023/07/17 11:51:32;;;;;;;33.15;30.98;;;26.80;87.40;;;;;;5032456;28;20025;-75
2023/07/17 11:53:58;;;;;;;53.92;50.83;;;27.10;88.80;;;;;;5032798;28;20033;-74
2023/07/17 11:56:37;;;;;;;48.50;45.80;;;27.20;85.20;;;;;;5032422;28;20041;-75
2023/07/17 11:59:05;;;;;;;51.88;49.17;;;27.10;85.80;;;;;;5032850;28;20037;-75
2023/07/17 12:01:32;;;;;;;47.22;44.72;;;27.30;87.20;;;;;;5031779;28;20040;-75
2023/07/17 12:04:15;;;;;;;53.78;50.78;;;27.40;86.00;;;;;;5032597;28;20033;-75
2023/07/17 12:06:41;;;;;;;34.88;33.05;;;27.50;85.20;;;;;;5033126;28;20030;-75
2023/07/17 12:09:07;;;;;;;55.08;52.28;;;27.50;86.70;;;;;;5033722;28;20493;-75
2023/07/17 12:11:33;;;;;;;54.25;51.30;;;27.50;84.90;;;;;;5033436;28;20029;-75
2023/07/17 12:13:59;;;;;;;55.55;52.45;;;27.10;84.20;;;;;;5033651;28;20378;-75
2023/07/17 12:16:25;;;;;;;48.33;45.67;;;27.00;84.60;;;;;;5032706;28;20067;-75
2023/07/17 12:18:51;;;;;;;45.55;43.08;;;26.80;84.70;;;;;;5033524;28;20359;-74
2023/07/17 12:21:17;;;;;;;29.38;27.50;;;26.70;84.70;;;;;;5032726;28;20034;-74
2023/07/17 12:23:43;;;;;;;32.08;30.20;;;26.70;86.70;;;;;;5033342;28;20382;-75
2023/07/17 12:26:09;;;;;;;37.42;35.33;;;26.90;86.80;;;;;;5033190;28;20029;-75
2023/07/17 12:28:35;;;;;;;32.55;30.75;;;26.90;86.20;;;;;;5032758;28;20501;-74
2023/07/17 12:31:01;;;;;;;46.90;44.30;;;27.00;86.70;;;;;;5032550;28;20038;-75